Time;durP1;ratioP1;P1;durP2;ratioP2;P2;SDS_P1;SDS_P2;PMS_P1;PMS_P2;Temp;Humidity;BMP_temperature;BMP_pressure;BME280_temperature;BME280_humidity;BME280_pressure;Samples;Min_cycle;Max_cycle;Signal;HPM_P1;HPM_P2
2022/12/31 00:01:03;;;;;;;10.82;2.53;;;;;;;;;;5061769;28;20040;-78
2022/12/31 00:03:29;;;;;;;15.05;2.95;;;;;;;;;;5060013;28;20428;-77
2022/12/31 00:05:56;;;;;;;13.00;2.85;;;;;;;;;;5058235;28;20143;-78
2022/12/31 00:08:22;;;;;;;10.10;2.92;;;;;;;;;;5048891;28;20055;-77
2022/12/31 00:10:48;;;;;;;16.30;3.17;;;;;;;;;;5041063;28;20060;-77
2022/12/31 00:13:14;;;;;;;17.05;3.55;;;;;;;;;;5060554;28;20067;-77
2022/12/31 00:15:41;;;;;;;10.18;2.58;;;;;;;;;;5059049;28;20146;-78
2022/12/31 00:18:08;;;;;;;12.15;3.25;;;;;;;;;;5065707;28;20036;-78
2022/12/31 00:20:34;;;;;;;13.40;2.67;;;;;;;;;;5089162;28;20047;-78
2022/12/31 00:23:00;;;;;;;15.02;2.90;;;;;;;;;;5103165;28;20028;-77
2022/12/31 00:25:26;;;;;;;17.58;2.92;;;;;;;;;;5067633;28;20040;-77
2022/12/31 00:27:53;;;;;;;15.10;3.53;;;;;;;;;;5082479;28;20129;-77
2022/12/31 00:30:19;;;;;;;9.60;3.17;;;;;;;;;;5045308;28;20518;-77
2022/12/31 00:32:45;;;;;;;12.77;2.33;;;;;;;;;;5058975;28;20595;-77
2022/12/31 00:35:11;;;;;;;18.20;3.50;;;;;;;;;;5075541;28;20036;-78
2022/12/31 00:37:37;;;;;;;12.70;3.38;;;;;;;;;;5080745;28;20064;-78
2022/12/31 00:40:04;;;;;;;15.32;2.80;;;;;;;;;;5069161;28;20809;-76
2022/12/31 00:42:30;;;;;;;14.13;3.10;;;;;;;;;;5041159;28;20098;-77
2022/12/31 00:44:56;;;;;;;16.45;3.00;;;;;;;;;;5056201;28;20036;-77
2022/12/31 00:47:23;;;;;;;14.23;2.90;;;;;;;;;;5055665;28;20139;-77
2022/12/31 00:49:49;;;;;;;12.70;3.08;;;;;;;;;;5056950;28;20246;-77
2022/12/31 00:52:17;;;;;;;11.98;3.53;;;;;;;;;;5056932;28;20727;-76
2022/12/31 00:54:43;;;;;;;13.30;3.72;;;;;;;;;;5053443;28;20181;-76
2022/12/31 00:57:09;;;;;;;9.20;3.00;;;;;;;;;;5055672;28;20051;-77
2022/12/31 00:59:35;;;;;;;13.65;3.78;;;;;;;;;;5058713;28;20399;-77
2022/12/31 01:02:01;;;;;;;17.33;2.72;;;;;;;;;;5042837;28;20036;-76
2022/12/31 01:04:27;;;;;;;19.52;4.78;;;;;;;;;;5038674;28;20128;-77
2022/12/31 01:06:53;;;;;;;11.63;3.20;;;;;;;;;;5038520;28;20040;-77
2022/12/31 01:09:20;;;;;;;19.80;4.22;;;;;;;;;;5057599;28;20048;-77
2022/12/31 01:11:46;;;;;;;14.13;3.20;;;;;;;;;;5040387;28;20706;-77
2022/12/31 01:14:17;;;;;;;15.23;2.92;;;;;;;;;;5056743;28;20400;-77
2022/12/31 01:16:44;;;;;;;18.63;3.53;;;;;;;;;;5056891;28;20745;-76
2022/12/31 01:19:12;;;;;;;18.00;3.90;;;;;;;;;;5055743;28;20046;-77
2022/12/31 01:21:39;;;;;;;18.98;4.05;;;;;;;;;;5055366;28;20567;-77
2022/12/31 01:24:05;;;;;;;21.90;4.75;;;;;;;;;;5058027;28;20496;-77
2022/12/31 01:26:32;;;;;;;14.48;3.53;;;;;;;;;;5050119;28;20047;-76
2022/12/31 01:28:58;;;;;;;20.35;3.95;;;;;;;;;;5054092;28;20051;-76
2022/12/31 01:31:24;;;;;;;21.17;3.72;;;;;;;;;;5040050;28;20669;-76
2022/12/31 01:33:51;;;;;;;18.25;3.53;;;;;;;;;;5057556;28;20047;-77
2022/12/31 01:36:18;;;;;;;22.45;4.50;;;;;;;;;;5057286;28;20039;-76
2022/12/31 01:38:44;;;;;;;15.95;3.53;;;;;;;;;;5041554;28;20074;-77
2022/12/31 01:41:11;;;;;;;20.70;4.05;;;;;;;;;;5040539;28;20400;-77
2022/12/31 01:43:55;;;;;;;14.80;3.30;;;;;;;;;;5054018;28;20212;-77
2022/12/31 01:46:39;;;;;;;19.48;3.40;;;;;;;;;;5055766;28;20128;-77
2022/12/31 01:49:05;;;;;;;;;;;;;;;;;;5058148;28;20490;-76
2022/12/31 01:51:33;;;;;;;21.75;4.10;;;;;;;;;;5055911;28;19930;-76
2022/12/31 01:53:59;;;;;;;16.15;3.70;;;;;;;;;;5060642;28;20039;-76
2022/12/31 01:56:25;;;;;;;18.95;3.30;;;;;;;;;;5057535;28;20055;-76
2022/12/31 01:58:53;;;;;;;19.95;4.22;;;;;;;;;;5053775;28;20035;-76
2022/12/31 02:01:23;;;;;;;17.42;3.25;;;;;;;;;;5069089;28;20052;-76
2022/12/31 02:03:49;;;;;;;18.17;3.97;;;;;;;;;;5058800;28;20072;-75
2022/12/31 02:06:51;;;;;;;15.65;3.67;;;;;;;;;;5041708;28;21622;-76
2022/12/31 02:09:17;;;;;;;16.30;4.20;;;;;;;;;;4989270;28;20049;-76
2022/12/31 02:11:43;;;;;;;19.65;4.50;;;;;;;;;;5061746;28;20072;-76
2022/12/31 02:14:13;;;;;;;21.30;4.47;;;;;;;;;;5073884;28;20224;-76
2022/12/31 02:16:59;;;;;;;17.85;4.28;;;;;;;;;;5081240;28;20513;-76
2022/12/31 02:19:25;;;;;;;24.77;5.25;;;;;;;;;;5068348;28;20643;-76
2022/12/31 02:22:01;;;;;;;23.08;4.75;;;;;;;;;;5078831;28;20044;-76
2022/12/31 02:24:46;;;;;;;23.73;4.68;;;;;;;;;;5066239;28;20044;-77
2022/12/31 02:27:16;;;;;;;21.35;5.00;;;;;;;;;;5055284;28;20055;-77
2022/12/31 02:29:51;;;;;;;19.30;4.63;;;;;;;;;;5053111;28;21717;-76
2022/12/31 02:32:22;;;;;;;15.15;3.78;;;;;;;;;;5047750;28;20062;-76
2022/12/31 02:34:57;;;;;;;17.20;4.25;;;;;;;;;;5051589;28;20435;-77
2022/12/31 02:37:24;;;;;;;16.13;3.75;;;;;;;;;;5053227;28;20044;-77
2022/12/31 02:39:50;;;;;;;22.05;4.55;;;;;;;;;;5041378;28;20048;-77
2022/12/31 02:42:17;;;;;;;12.80;3.97;;;;;;;;;;5045189;28;20052;-77
2022/12/31 02:44:43;;;;;;;12.35;4.25;;;;;;;;;;5054423;28;20518;-77
2022/12/31 02:47:11;;;;;;;14.55;5.22;;;;;;;;;;5054432;28;20132;-77
2022/12/31 02:49:37;;;;;;;12.93;4.65;;;;;;;;;;5052029;28;20045;-77
2022/12/31 02:52:22;;;;;;;12.52;4.22;;;;;;;;;;5051491;28;22060;-77
2022/12/31 02:55:07;;;;;;;15.50;4.60;;;;;;;;;;5036045;28;20040;-77
2022/12/31 02:57:39;;;;;;;10.10;4.60;;;;;;;;;;5054499;28;20043;-77
2022/12/31 03:03:02;;;;;;;14.88;4.82;;;;;;;;;;5056856;28;20113;-77
2022/12/31 03:05:30;;;;;;;10.52;3.78;;;;;;;;;;5043444;28;20054;-77
2022/12/31 03:07:56;;;;;;;13.68;4.10;;;;;;;;;;5060979;28;20040;-77
2022/12/31 03:10:22;;;;;;;8.85;3.83;;;;;;;;;;5056911;28;20465;-77
2022/12/31 03:12:48;;;;;;;14.23;4.38;;;;;;;;;;5056924;28;20947;-77
2022/12/31 03:15:22;;;;;;;11.32;5.13;;;;;;;;;;5057119;28;20047;-77
2022/12/31 03:18:00;;;;;;;19.80;5.57;;;;;;;;;;5056362;28;20072;-77
2022/12/31 03:23:14;;;;;;;14.55;5.28;;;;;;;;;;5056622;28;20036;-77
2022/12/31 03:25:41;;;;;;;15.10;4.57;;;;;;;;;;5046086;28;20428;-77
2022/12/31 03:28:08;;;;;;;10.38;4.40;;;;;;;;;;5057146;28;20084;-77
2022/12/31 03:30:35;;;;;;;10.48;4.43;;;;;;;;;;5070693;28;20044;-77
2022/12/31 03:33:01;;;;;;;15.50;4.70;;;;;;;;;;5054761;28;20145;-77
2022/12/31 03:35:29;;;;;;;11.55;4.85;;;;;;;;;;5040548;28;21665;-76
2022/12/31 03:37:56;;;;;;;13.52;4.43;;;;;;;;;;5053508;28;20067;-77
2022/12/31 03:40:23;;;;;;;11.27;4.35;;;;;;;;;;5054464;28;20040;-77
2022/12/31 03:42:50;;;;;;;7.43;3.53;;;;;;;;;;5053461;28;20113;-77
2022/12/31 03:45:16;;;;;;;10.35;3.47;;;;;;;;;;5053925;28;20049;-77
2022/12/31 03:47:42;;;;;;;11.40;3.63;;;;;;;;;;5051857;28;20131;-77
2022/12/31 03:50:09;;;;;;;9.05;3.30;;;;;;;;;;5032230;28;20071;-77
2022/12/31 03:52:35;;;;;;;7.05;3.50;;;;;;;;;;5050067;28;21988;-76
2022/12/31 03:55:01;;;;;;;8.35;3.80;;;;;;;;;;5041781;28;20071;-77
2022/12/31 03:57:28;;;;;;;9.43;3.45;;;;;;;;;;5083033;28;20141;-77
2022/12/31 03:59:54;;;;;;;9.50;3.45;;;;;;;;;;5064345;28;20040;-76
2022/12/31 04:02:20;;;;;;;5.93;2.45;;;;;;;;;;5077863;28;20044;-76
2022/12/31 04:04:46;;;;;;;8.50;3.13;;;;;;;;;;5065716;28;20047;-77
2022/12/31 04:07:12;;;;;;;7.85;2.75;;;;;;;;;;5053786;28;20115;-76
2022/12/31 04:09:38;;;;;;;8.90;2.90;;;;;;;;;;5070708;28;20040;-76
2022/12/31 04:12:04;;;;;;;9.73;2.85;;;;;;;;;;5053245;28;20095;-76
2022/12/31 04:14:30;;;;;;;14.30;2.85;;;;;;;;;;5054984;28;20517;-77
2022/12/31 04:16:56;;;;;;;8.65;2.45;;;;;;;;;;5036626;28;20772;-77
2022/12/31 04:19:23;;;;;;;8.10;2.35;;;;;;;;;;5053260;28;20055;-77
2022/12/31 04:21:49;;;;;;;5.53;2.17;;;;;;;;;;5036405;28;20075;-77
2022/12/31 04:24:15;;;;;;;5.80;2.30;;;;;;;;;;5052875;28;20066;-77
2022/12/31 04:26:42;;;;;;;6.97;1.85;;;;;;;;;;5056641;28;20040;-77
2022/12/31 04:29:09;;;;;;;8.27;1.85;;;;;;;;;;5051985;28;21439;-77
2022/12/31 04:31:35;;;;;;;7.07;2.42;;;;;;;;;;5057470;28;20053;-77
2022/12/31 04:34:01;;;;;;;8.77;1.52;;;;;;;;;;5052668;28;20036;-77
2022/12/31 04:36:27;;;;;;;5.10;1.40;;;;;;;;;;5051694;28;20157;-77
2022/12/31 04:38:53;;;;;;;9.48;1.88;;;;;;;;;;5052334;28;20106;-77
2022/12/31 04:41:20;;;;;;;4.95;1.33;;;;;;;;;;5052998;28;20044;-77
2022/12/31 04:43:53;;;;;;;5.20;1.20;;;;;;;;;;5048936;28;20487;-77
2022/12/31 04:46:20;;;;;;;7.30;1.42;;;;;;;;;;5052134;28;20055;-77
2022/12/31 04:48:46;;;;;;;5.45;1.48;;;;;;;;;;5051091;28;20522;-77
2022/12/31 04:51:13;;;;;;;2.92;1.27;;;;;;;;;;5055561;28;20041;-76
2022/12/31 04:53:39;;;;;;;5.53;1.25;;;;;;;;;;5051522;28;20438;-76
2022/12/31 04:56:06;;;;;;;3.53;1.10;;;;;;;;;;5050945;28;20440;-76
2022/12/31 04:58:32;;;;;;;5.68;1.50;;;;;;;;;;5047091;28;20102;-76
2022/12/31 05:00:59;;;;;;;4.72;1.08;;;;;;;;;;5052470;28;20093;-76
2022/12/31 05:03:26;;;;;;;5.30;1.40;;;;;;;;;;5036189;28;22825;-75
2022/12/31 05:05:52;;;;;;;4.88;1.67;;;;;;;;;;5053058;28;20140;-76
2022/12/31 05:08:18;;;;;;;4.32;1.30;;;;;;;;;;5051647;28;20521;-76
2022/12/31 05:10:46;;;;;;;5.20;1.20;;;;;;;;;;5052150;28;20048;-76
2022/12/31 05:13:12;;;;;;;5.75;1.70;;;;;;;;;;5051810;28;20396;-77
2022/12/31 05:15:39;;;;;;;8.13;1.48;;;;;;;;;;5054300;28;20044;-76
2022/12/31 05:18:05;;;;;;;8.05;1.48;;;;;;;;;;5052253;28;20566;-76
2022/12/31 05:20:31;;;;;;;5.68;1.50;;;;;;;;;;5050250;28;20095;-76
2022/12/31 05:22:57;;;;;;;6.13;1.90;;;;;;;;;;5052643;28;20040;-76
2022/12/31 05:25:23;;;;;;;6.68;1.70;;;;;;;;;;5052083;28;20044;-76
2022/12/31 05:27:49;;;;;;;3.75;1.50;;;;;;;;;;5038648;28;20051;-75
2022/12/31 05:30:17;;;;;;;7.40;1.65;;;;;;;;;;5067631;28;20104;-76
2022/12/31 05:32:43;;;;;;;8.07;1.77;;;;;;;;;;5057126;28;20444;-77
2022/12/31 05:35:10;;;;;;;5.90;2.05;;;;;;;;;;5056816;28;20047;-76
2022/12/31 05:37:36;;;;;;;6.70;2.20;;;;;;;;;;5056902;28;20039;-77
2022/12/31 05:40:02;;;;;;;7.97;2.10;;;;;;;;;;5052566;28;21294;-76
2022/12/31 05:42:28;;;;;;;5.88;2.03;;;;;;;;;;5062898;28;20065;-77
2022/12/31 05:44:54;;;;;;;5.55;2.10;;;;;;;;;;5068390;28;20062;-76
2022/12/31 05:47:21;;;;;;;5.35;2.50;;;;;;;;;;5083427;28;20119;-77
2022/12/31 05:49:47;;;;;;;5.88;2.30;;;;;;;;;;5084577;28;20289;-77
2022/12/31 05:52:13;;;;;;;8.55;2.42;;;;;;;;;;5080494;28;21723;-76
2022/12/31 05:54:39;;;;;;;3.67;1.85;;;;;;;;;;5065722;28;20044;-76
2022/12/31 05:57:05;;;;;;;4.60;2.22;;;;;;;;;;5079743;28;20078;-76
2022/12/31 05:59:31;;;;;;;6.20;2.40;;;;;;;;;;5056592;28;20040;-77
2022/12/31 06:01:57;;;;;;;8.88;2.70;;;;;;;;;;5055724;28;20036;-77
2022/12/31 06:04:23;;;;;;;10.57;2.50;;;;;;;;;;5038442;28;20721;-77
2022/12/31 06:06:49;;;;;;;9.70;2.60;;;;;;;;;;5037270;28;20519;-72
2022/12/31 06:09:17;;;;;;;8.13;2.63;;;;;;;;;;5050614;28;20048;-73
2022/12/31 06:11:43;;;;;;;6.50;2.38;;;;;;;;;;5068700;28;20132;-73
2022/12/31 06:14:09;;;;;;;8.55;2.80;;;;;;;;;;5055821;28;20650;-73
2022/12/31 06:16:35;;;;;;;10.63;3.97;;;;;;;;;;5039760;28;20431;-73
2022/12/31 06:19:01;;;;;;;10.65;2.90;;;;;;;;;;5060823;28;20776;-73
2022/12/31 06:21:28;;;;;;;8.55;2.78;;;;;;;;;;5038279;28;21585;-74
2022/12/31 06:23:54;;;;;;;8.60;3.28;;;;;;;;;;5046247;28;20050;-74
2022/12/31 06:26:20;;;;;;;9.15;3.10;;;;;;;;;;5054625;28;20640;-74
2022/12/31 06:28:46;;;;;;;12.90;3.60;;;;;;;;;;5041799;28;20044;-74
2022/12/31 06:31:13;;;;;;;5.10;2.78;;;;;;;;;;5053539;28;20793;-74
2022/12/31 06:33:39;;;;;;;8.30;2.72;;;;;;;;;;5053194;28;20075;-74
2022/12/31 06:36:07;;;;;;;11.15;2.67;;;;;;;;;;5038144;28;20107;-74
2022/12/31 06:38:34;;;;;;;9.00;3.33;;;;;;;;;;5053937;28;20052;-75
2022/12/31 06:41:04;;;;;;;12.65;3.28;;;;;;;;;;5054509;28;20079;-75
2022/12/31 06:43:30;;;;;;;9.23;2.67;;;;;;;;;;5052382;28;20040;-75
2022/12/31 06:45:59;;;;;;;8.13;2.15;;;;;;;;;;5060498;28;20483;-75
2022/12/31 06:48:25;;;;;;;9.18;2.17;;;;;;;;;;5068609;28;20561;-74
2022/12/31 06:50:51;;;;;;;7.45;1.55;;;;;;;;;;5054005;28;20048;-74
2022/12/31 06:53:18;;;;;;;4.85;1.33;;;;;;;;;;5053677;28;20099;-74
2022/12/31 06:55:44;;;;;;;4.93;1.35;;;;;;;;;;5054259;28;20059;-73
2022/12/31 06:58:13;;;;;;;5.53;1.30;;;;;;;;;;5044859;28;20374;-75
2022/12/31 07:00:49;;;;;;;4.43;1.13;;;;;;;;;;5024695;28;20502;-73
2022/12/31 07:03:20;;;;;;;3.65;1.20;;;;;;;;;;5047265;28;20504;-73
2022/12/31 07:05:49;;;;;;;5.30;1.30;;;;;;;;;;5049287;28;20500;-74
2022/12/31 07:08:41;;;;;;;4.10;1.30;;;;;;;;;;5050271;28;20047;-74
2022/12/31 07:11:27;;;;;;;4.20;1.23;;;;;;;;;;5046157;28;20056;-73
2022/12/31 07:14:12;;;;;;;3.92;1.63;;;;;;;;;;5034295;28;21729;-73
2022/12/31 07:16:48;;;;;;;5.13;1.55;;;;;;;;;;5050971;28;20082;-73
2022/12/31 07:19:21;;;;;;;7.75;1.75;;;;;;;;;;5053898;28;21237;-72
2022/12/31 07:21:48;;;;;;;7.85;2.30;;;;;;;;;;5053646;28;20048;-73
2022/12/31 07:24:15;;;;;;;12.98;3.00;;;;;;;;;;5055273;28;20055;-75
2022/12/31 07:27:10;;;;;;;7.50;2.67;;;;;;;;;;5043486;28;20044;-73
2022/12/31 07:29:36;;;;;;;11.00;3.17;;;;;;;;;;5039838;28;20175;-75
2022/12/31 07:32:18;;;;;;;5.65;2.63;;;;;;;;;;5080589;28;20071;-75
2022/12/31 07:34:54;;;;;;;8.05;2.65;;;;;;;;;;5075822;28;20032;-75
2022/12/31 07:37:26;;;;;;;9.15;2.50;;;;;;;;;;5049424;28;20048;-76
2022/12/31 07:40:11;;;;;;;5.97;2.38;;;;;;;;;;5054661;28;20048;-76
2022/12/31 07:42:37;;;;;;;8.65;2.75;;;;;;;;;;5039713;28;20120;-77
2022/12/31 07:45:12;;;;;;;6.88;2.70;;;;;;;;;;5055773;28;20065;-77
2022/12/31 07:47:38;;;;;;;6.25;2.55;;;;;;;;;;5051204;28;20044;-77
2022/12/31 07:50:05;;;;;;;7.80;2.60;;;;;;;;;;5040669;28;20045;-77
2022/12/31 07:52:31;;;;;;;10.80;3.50;;;;;;;;;;5055990;28;20089;-77
2022/12/31 07:54:57;;;;;;;7.45;3.22;;;;;;;;;;5042862;28;20048;-77
2022/12/31 07:57:31;;;;;;;4.85;3.90;;;;;;;;;;5046688;28;20054;-76
2022/12/31 08:00:00;;;;;;;9.38;4.38;;;;;;;;;;5041555;28;20446;-76
2022/12/31 08:02:26;;;;;;;10.57;4.72;;;;;;;;;;5046053;28;20507;-77
2022/12/31 08:05:02;;;;;;;9.82;6.05;;;;;;;;;;5041492;28;22667;-77
2022/12/31 08:07:46;;;;;;;6.88;5.13;;;;;;;;;;5060370;28;20044;-77
2022/12/31 08:10:18;;;;;;;8.20;6.47;;;;;;;;;;5062539;28;20061;-77
2022/12/31 08:12:46;;;;;;;8.98;6.95;;;;;;;;;;5064770;28;20987;-76
2022/12/31 08:15:14;;;;;;;9.10;7.13;;;;;;;;;;5062609;28;20036;-77
2022/12/31 08:17:40;;;;;;;8.57;6.53;;;;;;;;;;5047556;28;20032;-77
2022/12/31 08:20:07;;;;;;;10.43;6.68;;;;;;;;;;5027573;28;20131;-78
2022/12/31 08:22:55;;;;;;;12.88;6.70;;;;;;;;;;5063742;28;20046;-77
2022/12/31 08:25:31;;;;;;;9.55;6.40;;;;;;;;;;5060320;28;20101;-77
2022/12/31 08:28:12;;;;;;;6.80;5.78;;;;;;;;;;5060472;28;20040;-77
2022/12/31 08:30:38;;;;;;;6.57;5.80;;;;;;;;;;5060057;28;20172;-79
2022/12/31 08:33:04;;;;;;;7.22;5.15;;;;;;;;;;5051377;28;20507;-75
2022/12/31 08:35:49;;;;;;;5.78;4.90;;;;;;;;;;5054651;28;20047;-81
2022/12/31 08:38:27;;;;;;;5.22;3.97;;;;;;;;;;5056232;28;20048;-75
2022/12/31 08:41:03;;;;;;;5.72;4.32;;;;;;;;;;5054878;28;20040;-75
2022/12/31 08:43:37;;;;;;;6.95;4.75;;;;;;;;;;5057883;28;20051;-75
2022/12/31 08:46:03;;;;;;;;;;;;;;;;;;5053267;28;20090;-75
2022/12/31 08:48:30;;;;;;;7.35;4.22;;;;;;;;;;5048751;28;20418;-75
2022/12/31 08:50:56;;;;;;;5.78;4.25;;;;;;;;;;5053479;28;20055;-74
2022/12/31 08:53:23;;;;;;;6.13;4.88;;;;;;;;;;5053779;28;20582;-75
2022/12/31 08:55:52;;;;;;;7.15;5.28;;;;;;;;;;5042645;28;20044;-75
2022/12/31 08:58:18;;;;;;;8.30;5.60;;;;;;;;;;5050515;28;20662;-75
2022/12/31 09:00:45;;;;;;;8.57;5.28;;;;;;;;;;5053756;28;20089;-74
2022/12/31 09:03:37;;;;;;;6.93;5.40;;;;;;;;;;5057244;28;20420;-74
2022/12/31 09:06:03;;;;;;;6.30;5.40;;;;;;;;;;5069304;28;20123;-75
2022/12/31 09:08:35;;;;;;;6.53;4.68;;;;;;;;;;5059850;28;20043;-75
2022/12/31 09:11:05;;;;;;;5.55;4.57;;;;;;;;;;5074507;28;20044;-75
2022/12/31 09:13:31;;;;;;;7.05;5.57;;;;;;;;;;5075664;28;20051;-74
2022/12/31 09:16:18;;;;;;;10.93;6.47;;;;;;;;;;5051355;28;20039;-74
2022/12/31 09:18:44;;;;;;;13.18;9.60;;;;;;;;;;5055624;28;20527;-75
2022/12/31 09:21:12;;;;;;;5.10;3.70;;;;;;;;;;5057712;28;20055;-74
2022/12/31 09:23:39;;;;;;;14.27;9.88;;;;;;;;;;5037703;28;20054;-73
2022/12/31 09:26:23;;;;;;;3.90;3.60;;;;;;;;;;5044461;28;21707;-74
2022/12/31 09:29:02;;;;;;;4.07;3.28;;;;;;;;;;5058306;28;20044;-74
2022/12/31 09:31:51;;;;;;;3.97;3.55;;;;;;;;;;5040610;28;20497;-74
2022/12/31 09:34:23;;;;;;;4.35;3.95;;;;;;;;;;5056893;28;20617;-73
2022/12/31 09:36:51;;;;;;;4.15;3.75;;;;;;;;;;5075002;28;20043;-73
2022/12/31 09:39:25;;;;;;;3.30;3.00;;;;;;;;;;5056854;28;20075;-74
2022/12/31 09:41:52;;;;;;;5.68;4.47;;;;;;;;;;5056046;28;20048;-74
2022/12/31 09:44:18;;;;;;;4.13;3.60;;;;;;;;;;5058288;28;20372;-75
2022/12/31 09:46:57;;;;;;;3.25;2.95;;;;;;;;;;5061087;28;20060;-75
2022/12/31 09:49:23;;;;;;;3.80;2.75;;;;;;;;;;5061174;28;20441;-75
2022/12/31 09:52:04;;;;;;;2.17;2.08;;;;;;;;;;5060624;28;20062;-75
2022/12/31 09:54:39;;;;;;;3.10;2.65;;;;;;;;;;5060905;28;20036;-74
2022/12/31 09:57:06;;;;;;;4.40;3.65;;;;;;;;;;5038542;28;20040;-74
2022/12/31 09:59:32;;;;;;;3.85;2.47;;;;;;;;;;5051665;28;20081;-74
2022/12/31 10:02:19;;;;;;;2.97;2.03;;;;;;;;;;5051252;28;20120;-74
2022/12/31 10:04:48;;;;;;;1.83;1.55;;;;;;;;;;5050763;28;20696;-74
2022/12/31 10:07:14;;;;;;;3.92;1.85;;;;;;;;;;5052837;28;20146;-74
2022/12/31 10:10:00;;;;;;;2.53;1.50;;;;;;;;;;5054104;28;20580;-74
2022/12/31 10:12:29;;;;;;;4.10;2.05;;;;;;;;;;5050268;28;20129;-74
2022/12/31 10:14:58;;;;;;;3.10;2.13;;;;;;;;;;5055551;28;20036;-74
2022/12/31 10:17:47;;;;;;;6.35;1.88;;;;;;;;;;5055425;28;20037;-74
2022/12/31 10:20:33;;;;;;;2.45;1.00;;;;;;;;;;5019937;28;20167;-73
2022/12/31 10:23:28;;;;;;;2.88;1.25;;;;;;;;;;5055458;28;20050;-74
2022/12/31 10:26:12;;;;;;;3.60;1.60;;;;;;;;;;4985013;28;20049;-75
2022/12/31 10:28:38;;;;;;;3.13;1.15;;;;;;;;;;5054367;28;20082;-75
2022/12/31 10:31:07;;;;;;;6.90;1.50;;;;;;;;;;5039371;28;20563;-74
2022/12/31 10:33:44;;;;;;;3.47;1.27;;;;;;;;;;5054788;28;20089;-75
2022/12/31 10:36:17;;;;;;;5.38;1.48;;;;;;;;;;5056024;28;20036;-74
2022/12/31 10:38:54;;;;;;;3.95;1.10;;;;;;;;;;5054712;28;20075;-75
2022/12/31 10:41:29;;;;;;;3.63;1.00;;;;;;;;;;5055345;28;20167;-75
2022/12/31 10:44:14;;;;;;;2.10;0.93;;;;;;;;;;5065700;28;20036;-75
2022/12/31 10:46:56;;;;;;;7.15;1.55;;;;;;;;;;5076838;28;20048;-75
2022/12/31 10:49:44;;;;;;;4.88;1.38;;;;;;;;;;5076150;28;20054;-75
2022/12/31 10:52:22;;;;;;;6.22;1.60;;;;;;;;;;5082376;28;20056;-75
2022/12/31 10:55:06;;;;;;;9.13;1.90;;;;;;;;;;5079142;28;20048;-76
2022/12/31 10:57:32;;;;;;;7.57;1.20;;;;;;;;;;5065742;28;20047;-75
2022/12/31 11:00:09;;;;;;;6.47;1.20;;;;;;;;;;5051064;28;20049;-74
2022/12/31 11:02:38;;;;;;;6.63;1.08;;;;;;;;;;5062501;27;20436;-75
2022/12/31 11:05:10;;;;;;;8.73;1.50;;;;;;;;;;5045684;28;20142;-74
2022/12/31 11:07:46;;;;;;;9.07;1.63;;;;;;;;;;5049287;28;22528;-75
2022/12/31 11:10:12;;;;;;;6.35;1.30;;;;;;;;;;5049944;28;20044;-75
2022/12/31 11:12:45;;;;;;;7.00;0.90;;;;;;;;;;5049817;28;20099;-75
2022/12/31 11:15:17;;;;;;;5.60;1.33;;;;;;;;;;5050118;28;20056;-75
2022/12/31 11:17:46;;;;;;;7.32;1.80;;;;;;;;;;5051084;28;20047;-75
2022/12/31 11:20:33;;;;;;;11.57;1.67;;;;;;;;;;5067219;28;20602;-75
2022/12/31 11:23:18;;;;;;;8.18;1.55;;;;;;;;;;5052109;28;20490;-75
2022/12/31 11:25:54;;;;;;;11.70;1.58;;;;;;;;;;5051411;28;20047;-75
2022/12/31 11:28:26;;;;;;;7.85;1.30;;;;;;;;;;5030371;28;20040;-75
2022/12/31 11:31:16;;;;;;;5.50;1.17;;;;;;;;;;5049032;28;20137;-75
2022/12/31 11:33:42;;;;;;;8.40;1.30;;;;;;;;;;5049774;28;20650;-74
2022/12/31 11:36:12;;;;;;;4.93;1.25;;;;;;;;;;5050685;28;20133;-75
2022/12/31 11:38:45;;;;;;;6.55;1.67;;;;;;;;;;5035638;28;20040;-75
2022/12/31 11:41:23;;;;;;;10.82;2.00;;;;;;;;;;5050871;28;20759;-76
2022/12/31 11:44:08;;;;;;;13.27;1.98;;;;;;;;;;5049845;28;20044;-76
2022/12/31 11:46:53;;;;;;;8.15;1.90;;;;;;;;;;5058307;28;20075;-74
2022/12/31 11:49:25;;;;;;;9.73;1.80;;;;;;;;;;5055751;28;21155;-73
2022/12/31 11:52:07;;;;;;;8.93;1.92;;;;;;;;;;5057188;28;20101;-72
2022/12/31 11:54:33;;;;;;;9.98;2.05;;;;;;;;;;5058038;28;20055;-72
2022/12/31 11:57:02;;;;;;;4.60;1.58;;;;;;;;;;5055351;28;20039;-73
2022/12/31 11:59:28;;;;;;;4.88;1.40;;;;;;;;;;5058689;28;20516;-79
2022/12/31 12:02:04;;;;;;;10.18;2.25;;;;;;;;;;5059135;28;20048;-78
2022/12/31 12:04:31;;;;;;;11.70;2.03;;;;;;;;;;5057571;28;20043;-78
2022/12/31 12:06:57;;;;;;;6.90;2.33;;;;;;;;;;5051587;28;20051;-77
2022/12/31 12:09:30;;;;;;;7.13;1.60;;;;;;;;;;5044898;28;20787;-77
2022/12/31 12:12:00;;;;;;;16.63;1.83;;;;;;;;;;5043544;28;20127;-78
2022/12/31 12:14:48;;;;;;;6.35;1.70;;;;;;;;;;5056784;28;20047;-78
2022/12/31 12:17:16;;;;;;;6.93;1.90;;;;;;;;;;5061460;28;20043;-78
2022/12/31 12:19:47;;;;;;;10.20;2.13;;;;;;;;;;5067920;28;20082;-78
2022/12/31 12:22:24;;;;;;;11.27;2.67;;;;;;;;;;5055826;28;20056;-78
2022/12/31 12:25:02;;;;;;;7.78;2.40;;;;;;;;;;5080712;28;20048;-78
2022/12/31 12:27:30;;;;;;;5.72;1.80;;;;;;;;;;5092176;28;20037;-77
2022/12/31 12:29:56;;;;;;;10.15;1.77;;;;;;;;;;5084213;28;20072;-78
2022/12/31 12:32:24;;;;;;;8.40;1.52;;;;;;;;;;5096949;28;20045;-77
2022/12/31 12:34:50;;;;;;;6.57;1.50;;;;;;;;;;5084537;28;20696;-77
2022/12/31 12:37:27;;;;;;;7.97;1.63;;;;;;;;;;5057018;28;20054;-78
2022/12/31 12:39:58;;;;;;;5.22;1.90;;;;;;;;;;5070397;27;20139;-77
2022/12/31 12:42:24;;;;;;;7.93;1.90;;;;;;;;;;5051089;28;20048;-77
2022/12/31 12:45:00;;;;;;;4.45;1.73;;;;;;;;;;5053618;28;20160;-76
2022/12/31 12:47:26;;;;;;;7.57;2.70;;;;;;;;;;5063982;28;20160;-77
2022/12/31 12:49:54;;;;;;;8.75;2.13;;;;;;;;;;5056500;28;20044;-77
2022/12/31 12:52:30;;;;;;;8.73;1.80;;;;;;;;;;5056095;28;20063;-77
2022/12/31 12:55:03;;;;;;;5.75;1.52;;;;;;;;;;5053856;28;20127;-76
2022/12/31 12:57:34;;;;;;;6.35;1.42;;;;;;;;;;5049598;28;20125;-76
2022/12/31 13:00:32;;;;;;;11.43;3.03;;;;;;;;;;5050890;28;20051;-77
2022/12/31 13:03:17;;;;;;;11.63;2.17;;;;;;;;;;5004628;28;20056;-78
2022/12/31 13:06:02;;;;;;;9.45;2.13;;;;;;;;;;5051144;28;20392;-77
2022/12/31 13:08:44;;;;;;;13.15;2.40;;;;;;;;;;5048389;28;20048;-77
2022/12/31 13:11:14;;;;;;;10.65;2.17;;;;;;;;;;5048857;28;20047;-78
2022/12/31 13:13:52;;;;;;;7.65;1.92;;;;;;;;;;5047114;28;20514;-78
2022/12/31 13:16:18;;;;;;;9.98;1.95;;;;;;;;;;5048161;28;20039;-78
2022/12/31 13:18:44;;;;;;;10.68;2.97;;;;;;;;;;5047148;28;20047;-77
2022/12/31 13:21:22;;;;;;;19.80;10.00;;;;;;;;;;5047223;28;20135;-77
2022/12/31 13:23:52;;;;;;;10.63;2.22;;;;;;;;;;5051276;28;20130;-77
2022/12/31 13:26:23;;;;;;;8.70;2.70;;;;;;;;;;5048266;28;20808;-77
2022/12/31 13:28:51;;;;;;;10.40;2.55;;;;;;;;;;5050860;28;20040;-78
2022/12/31 13:31:21;;;;;;;10.48;2.83;;;;;;;;;;5033518;28;21045;-77
2022/12/31 13:33:50;;;;;;;10.27;4.10;;;;;;;;;;5064365;28;20048;-77
2022/12/31 13:36:18;;;;;;;11.35;3.30;;;;;;;;;;5054692;28;20051;-77
2022/12/31 13:38:46;;;;;;;12.00;4.80;;;;;;;;;;5055378;28;20054;-77
2022/12/31 13:41:21;;;;;;;11.48;3.45;;;;;;;;;;5042018;28;20055;-77
2022/12/31 13:43:58;;;;;;;11.80;2.42;;;;;;;;;;5057799;28;20044;-78
2022/12/31 13:46:43;;;;;;;10.07;2.10;;;;;;;;;;5062047;28;20233;-77
2022/12/31 13:49:14;;;;;;;9.73;2.88;;;;;;;;;;5051196;28;20040;-77
2022/12/31 13:51:45;;;;;;;9.40;2.97;;;;;;;;;;5057117;28;20484;-79
2022/12/31 13:54:14;;;;;;;10.40;2.47;;;;;;;;;;5054396;28;20388;-78
2022/12/31 13:56:42;;;;;;;12.90;2.55;;;;;;;;;;5053620;28;20097;-79
2022/12/31 13:59:28;;;;;;;10.38;2.33;;;;;;;;;;5048630;28;20055;-78
2022/12/31 14:01:57;;;;;;;13.27;3.15;;;;;;;;;;5051296;28;20480;-79
2022/12/31 14:04:29;;;;;;;12.15;3.58;;;;;;;;;;5052778;28;21764;-78
2022/12/31 14:07:06;;;;;;;9.07;2.42;;;;;;;;;;5075831;28;20044;-79
2022/12/31 14:09:33;;;;;;;15.90;2.92;;;;;;;;;;5081292;28;20048;-78
2022/12/31 14:12:12;;;;;;;9.20;2.78;;;;;;;;;;5080561;28;20040;-78
2022/12/31 14:14:42;;;;;;;14.13;3.10;;;;;;;;;;5076199;28;20040;-79
2022/12/31 14:17:11;;;;;;;32.20;21.65;;;;;;;;;;5060361;28;20052;-79
2022/12/31 14:19:37;;;;;;;21.45;8.57;;;;;;;;;;5051927;28;20047;-79
2022/12/31 14:22:20;;;;;;;19.88;4.13;;;;;;;;;;5035068;28;20064;-79
2022/12/31 14:24:49;;;;;;;10.27;4.88;;;;;;;;;;5050889;28;20500;-80
2022/12/31 14:27:22;;;;;;;25.25;14.60;;;;;;;;;;5036295;28;20408;-81
2022/12/31 14:29:51;;;;;;;25.20;16.48;;;;;;;;;;5049880;28;20774;-80
2022/12/31 14:32:25;;;;;;;22.38;14.98;;;;;;;;;;5046067;28;20441;-81
2022/12/31 14:34:54;;;;;;;6.90;2.38;;;;;;;;;;5038982;28;20075;-82
2022/12/31 14:37:33;;;;;;;38.42;25.33;;;;;;;;;;5053503;28;20044;-80
2022/12/31 14:40:18;;;;;;;12.68;6.28;;;;;;;;;;5057832;28;20132;-82
2022/12/31 14:42:56;;;;;;;15.35;8.10;;;;;;;;;;5057430;28;20087;-82
2022/12/31 14:45:26;;;;;;;45.47;31.60;;;;;;;;;;5057481;28;20040;-81
2022/12/31 14:47:54;;;;;;;20.48;12.00;;;;;;;;;;5045568;28;20085;-81
2022/12/31 14:50:22;;;;;;;24.67;16.33;;;;;;;;;;5055946;28;20094;-84
2022/12/31 14:53:00;;;;;;;10.20;3.53;;;;;;;;;;5044603;28;20056;-81
2022/12/31 14:55:28;;;;;;;6.55;3.00;;;;;;;;;;5043575;28;20039;-81
2022/12/31 14:57:56;;;;;;;11.38;3.42;;;;;;;;;;5059050;28;20064;-81
2022/12/31 15:00:32;;;;;;;16.40;3.45;;;;;;;;;;5038862;28;20096;-81
2022/12/31 15:03:04;;;;;;;10.27;4.93;;;;;;;;;;5054693;28;20040;-82
2022/12/31 15:05:34;;;;;;;10.68;2.58;;;;;;;;;;5041960;28;20129;-82